METAR Data
IDs: Format: Raw Decoded Include TAF

Data at: 0238 UTC 18 Jun 2019

PANC 180153Z 16018G34KT 10SM FEW055 BKN110 BKN200 18/08 A2963 RMK AO2 PK WND 14034/0148 SLP033 ACSL E-SE SH DSNT NW-N T01780078
PANC 180053Z 15017G27KT 10SM FEW055 BKN110 BKN200 19/08 A2962 RMK AO2 PK WND 14028/0039 SLP031 SH DSNT N T01890083
PANC 172353Z 15012G18KT 10SM FEW048 BKN100 BKN200 21/08 A2962 RMK AO2 SLP031 VIRGA N AND NE SH DSNT W-NW 60000 T02060083 10206 20161 50001
PANC 172253Z VRB06KT 10SM FEW045TCU BKN075 BKN200 19/08 A2962 RMK AO2 RAE43 SLP032 PRESENT WX VCSH NW TCU NW ACSL DSNT S P0000 T01940083
PANC 172153Z 18006KT 10SM -RA FEW030 BKN085 BKN200 19/07 A2963 RMK AO2 RAB51 SLP032 P0000 T01940072
PANC 172053Z 00000KT 10SM FEW030 FEW090 SCT200 20/08 A2962 RMK AO2 SLP031 T02000083 56002
PANC 172000Z VRB03KT 10SM FEW030 FEW090 SCT200 18/09 A2962 RMK AO2 T01830089
PANC 171953Z 10SM FEW030 SCT120 SCT200 18/09 A2962 RMK AO2 SLP031 T01830089
PANC 171853Z 03006KT 10SM FEW030 FEW100 SCT200 18/09 A2962 RMK AO2 SLP030 T01780094
PANC 171753Z VRB04KT 10SM FEW030 FEW080 BKN200 16/11 A2962 RMK AO2 SLP032 T01610111 10161 20100 56007
PANC 171653Z 05006KT 10SM FEW030 FEW080 SCT200 15/10 A2963 RMK AO2 SLP035 T01500100
PANC 171553Z 35005KT 10SM FEW060 FEW085 BKN200 14/10 A2963 RMK AO2 SLP035 T01390100
PANC 171453Z 00000KT 10SM FEW060 SCT085 SCT200 12/10 A2964 RMK AO2 SLP039 T01170100 56011
PANC 171353Z 00000KT 10SM FEW010 FEW060 SCT110 SCT200 10/08 A2965 RMK AO2 SLP042 T01000083
PANC 171253Z 16003KT 10SM FEW060 SCT110 11/09 A2966 RMK AO2 SLP046 T01060094
PANC 171153Z 06005KT 10SM FEW060 SCT090 SCT120 12/11 A2968 RMK AO2 SLP050 60002 70002 T01220106 10150 20111 58016
PANC 171053Z 00000KT 10SM FEW080 SCT100 12/10 A2969 RMK AO2 SLP056 T01170100
PANC 170953Z 09003KT 10SM FEW050 BKN090 BKN110 12/10 A2971 RMK AO2 SLP062 T01220100
PANC 170853Z 18004KT 10SM FEW060 BKN085 BKN110 13/09 A2972 RMK AO2 RAE29 SLP065 P0000 60002 T01280089 401830106 58001
PANC 170753Z 15007KT 10SM -RA FEW050 BKN060 BKN100 13/09 A2973 RMK AO2 SLP068 P0002 T01280089
PANC 170653Z 16013KT 10SM -RA FEW055 BKN080 BKN110 14/08 A2973 RMK AO2 RAB45 SLP067 ACSL DSNT S P0000 T01390083
PANC 170553Z 16013G20KT 10SM FEW045 BKN070 OVC110 15/07 A2973 RMK AO2 RAE0459 SLP067 SH DSNT W-N P0000 60000 T01500072 10178 20150 56002
PANC 170453Z 15013G20KT 10SM -RA FEW045 BKN060 OVC095 15/08 A2973 RMK AO2 RAB09E28B47 SLP067 P0000 T01500083
PANC 170353Z 16017G23KT 10SM SCT045 BKN080 OVC110 15/08 A2973 RMK AO2 PK WND 17028/0322 SLP068 SH DSNT NW-NE T01500078
PANC 170253Z 15017G24KT 10SM FEW042 SCT075 BKN110 OVC250 16/08 A2973 RMK AO2 PK WND 16028/0224 SLP069 SH DSNT NW-N T01610078 58009
PANC 170153Z 15015G28KT 10SM FEW042 SCT075 BKN110 BKN250 16/08 A2975 RMK AO2 PK WND 13029/0119 SLP074 ACSL SE SH DSNT NW-N T01610078
PANC 170053Z 15016G23KT 10SM FEW042 SCT075 BKN150 BKN250 17/08 A2975 RMK AO2 PK WND 14027/0036 SLP076 ACSL SE SH DSNT NW-N T01720078
PANC 162353Z 15016G25KT 10SM SCT042 BKN150 OVC250 18/08 A2976 RMK AO2 SLP079 ACSL DSNT SE 60000 T01780078 10183 20139 58010
PANC 162253Z 15012G19KT 10SM FEW040 BKN070 BKN100 OVC160 17/08 A2977 RMK AO2 SLP082 T01720078
PANC 162153Z 14008G16KT 10SM FEW040 BKN070 BKN090 OVC160 16/09 A2978 RMK AO2 RAB16E52 SLP086 P0000 T01610089
PANC 162053Z 16003KT 10SM FEW020 BKN075 BKN090 OVC140 16/09 A2979 RMK AO2 RAB10E23 SLP089 P0000 60000 T01610094 58002
PANC 161953Z 00000KT 10SM FEW020 SCT070 BKN110 BKN160 16/09 A2979 RMK AO2 SLP089 T01560094
PANC 161853Z 00000KT 10SM FEW020 SCT060 BKN110 BKN200 15/10 A2980 RMK AO2 SLP091 T01500100
PANC 161753Z 31003KT 10SM FEW015 SCT060 BKN110 BKN200 14/11 A2980 RMK AO2 SLP091 T01440106 10156 20106 53000
PANC 161653Z 31005KT 10SM FEW010 SCT070 BKN110 BKN200 15/11 A2979 RMK AO2 SLP089 T01500111
PANC 161553Z 00000KT 10SM FEW010 SCT070 BKN110 BKN180 14/11 A2979 RMK AO2 SLP090 T01440111
PANC 161453Z 33003KT 10SM FEW010 SCT075 BKN130 13/11 A2980 RMK AO2 SLP091 T01330106 56004